createdAt,value
2023-03-29T00:00:51.714Z,39307.75
2023-03-29T00:03:19.232Z,39359.59
2023-03-29T00:05:48.150Z,39359.59
2023-03-29T00:08:22.739Z,39367.59
2023-03-29T00:10:51.833Z,39373.56
2023-03-29T00:13:21.158Z,39347.66
2023-03-29T00:15:51.410Z,39323.72
2023-03-29T00:18:21.016Z,39369.56
2023-03-29T00:20:59.290Z,39319.72
2023-03-29T00:23:26.575Z,39401.47
2023-03-29T00:25:54.156Z,39425.41
2023-03-29T00:28:21.723Z,39407.47
2023-03-29T00:30:50.915Z,39451.34
2023-03-29T00:33:20.543Z,39497.19
2023-03-29T00:35:54.471Z,39467.28
2023-03-29T00:38:24.246Z,39507.16
2023-03-29T00:40:51.502Z,39469.28
2023-03-29T00:43:18.711Z,39453.31
2023-03-29T00:45:48.151Z,39467.28
2023-03-29T00:48:22.353Z,39443.34
2023-03-29T00:50:53.968Z,39439.38
2023-03-29T00:53:46.041Z,39419.44
2023-03-29T00:56:27.743Z,39449.34
2023-03-29T00:59:04.870Z,39399.50
2023-03-29T01:01:42.218Z,39387.53
2023-03-29T01:04:29.337Z,39311.75
2023-03-29T01:07:03.253Z,39339.66
2023-03-29T01:09:33.924Z,39309.75
2023-03-29T01:12:05.511Z,39315.75
2023-03-29T01:14:45.882Z,39216.03
2023-03-29T01:17:13.116Z,39232.00
2023-03-29T01:19:47.684Z,39172.19
2023-03-29T01:22:17.815Z,39158.22
2023-03-29T01:25:13.221Z,39108.38
2023-03-29T01:27:54.828Z,39168.19
2023-03-29T01:30:37.440Z,39144.28
2023-03-29T01:33:12.689Z,39184.16
2023-03-29T01:35:43.703Z,39132.31
2023-03-29T01:38:18.412Z,39122.34
2023-03-29T01:40:45.604Z,39148.25
2023-03-29T01:43:33.947Z,39096.41
2023-03-29T01:46:32.434Z,39100.41
2023-03-29T01:49:11.212Z,39168.19
2023-03-29T01:52:03.502Z,39134.31
2023-03-29T01:54:43.127Z,39132.31
2023-03-29T01:57:14.447Z,39140.28
2023-03-29T01:59:44.538Z,39158.22
2023-03-29T02:02:15.787Z,39158.22
2023-03-29T02:04:53.549Z,39130.31
2023-03-29T02:07:30.481Z,39168.19
2023-03-29T02:09:59.053Z,39124.31
2023-03-29T02:12:26.250Z,39104.38
2023-03-29T02:14:56.564Z,39078.47
2023-03-29T02:17:26.757Z,39066.50
2023-03-29T02:20:17.432Z,39052.56
2023-03-29T02:23:21.132Z,39046.56
2023-03-29T02:25:50.905Z,39064.50
2023-03-29T02:28:18.393Z,39044.56
2023-03-29T02:30:57.482Z,39074.47
2023-03-29T02:33:39.084Z,39058.53
2023-03-29T02:36:17.659Z,39084.44
2023-03-29T02:38:45.482Z,39036.59
2023-03-29T02:41:17.855Z,39052.56
2023-03-29T02:43:47.580Z,39050.56
2023-03-29T02:46:16.679Z,39014.66
2023-03-29T02:48:46.766Z,39028.63
2023-03-29T02:51:29.138Z,39058.53
2023-03-29T02:54:03.161Z,39034.59
2023-03-29T02:56:30.721Z,39044.56
2023-03-29T02:58:57.837Z,39016.66
2023-03-29T03:01:26.248Z,39028.63
2023-03-29T03:03:53.718Z,38984.75
2023-03-29T03:06:21.400Z,38956.84
2023-03-29T03:08:51.174Z,38956.84
2023-03-29T03:11:18.552Z,38952.88
2023-03-29T03:13:46.852Z,38944.88
2023-03-29T03:16:14.403Z,38934.91
2023-03-29T03:18:42.657Z,38932.94
2023-03-29T03:21:09.898Z,38938.91
2023-03-29T03:23:37.532Z,38954.84
2023-03-29T03:26:06.162Z,38905.00
2023-03-29T03:28:34.235Z,38913.00
2023-03-29T03:31:09.211Z,38948.88
2023-03-29T03:34:11.048Z,38976.78
2023-03-29T03:36:47.225Z,38952.88
2023-03-29T03:39:14.374Z,38956.84
2023-03-29T03:41:45.288Z,38972.81
2023-03-29T03:44:17.151Z,38960.84
2023-03-29T03:46:47.210Z,39014.66
2023-03-29T03:49:14.610Z,39008.69
2023-03-29T03:51:45.451Z,38974.78
2023-03-29T03:54:13.043Z,39028.63
2023-03-29T03:57:06.271Z,39026.63
2023-03-29T03:59:41.414Z,39056.53
2023-03-29T04:02:12.040Z,39036.59
2023-03-29T04:04:42.218Z,39060.53
2023-03-29T04:07:14.275Z,39010.69
2023-03-29T04:10:02.512Z,39088.44
2023-03-29T04:12:40.378Z,39062.53
2023-03-29T04:15:10.506Z,38998.72
2023-03-29T04:17:40.288Z,39102.41
2023-03-29T04:20:19.858Z,39128.31
2023-03-29T04:22:47.748Z,39110.38
2023-03-29T04:25:21.172Z,39044.56
2023-03-29T04:27:49.748Z,39060.53
2023-03-29T04:30:38.406Z,39072.50
2023-03-29T04:33:21.896Z,39080.47
2023-03-29T04:35:59.758Z,39096.41
2023-03-29T04:38:31.497Z,39052.56
2023-03-29T04:41:01.302Z,39080.47
2023-03-29T04:43:50.577Z,39050.56
2023-03-29T04:46:29.704Z,39082.47
2023-03-29T04:49:14.347Z,38994.72
2023-03-29T04:51:46.392Z,39036.59
2023-03-29T04:54:18.605Z,39076.47
2023-03-29T04:57:07.327Z,39062.53
2023-03-29T04:59:45.119Z,39104.38
2023-03-29T05:02:22.031Z,39058.53
2023-03-29T05:04:50.510Z,39062.53
2023-03-29T05:07:19.558Z,39086.44
2023-03-29T05:09:48.031Z,39030.63
2023-03-29T05:12:15.390Z,39058.53
2023-03-29T05:14:51.334Z,39070.50
2023-03-29T05:17:18.956Z,39054.53
2023-03-29T05:19:49.180Z,39066.50
2023-03-29T05:22:16.678Z,39064.50
2023-03-29T05:24:44.449Z,39020.66
2023-03-29T05:27:17.191Z,39030.63
2023-03-29T05:29:51.911Z,39050.56
2023-03-29T05:32:25.637Z,39042.59
2023-03-29T05:34:53.384Z,39006.69
2023-03-29T05:37:21.617Z,39004.69
2023-03-29T05:39:54.941Z,38998.72
2023-03-29T05:42:34.622Z,38956.84
2023-03-29T05:45:09.080Z,38932.94
2023-03-29T05:47:36.998Z,38863.16
2023-03-29T05:50:09.760Z,38835.25
2023-03-29T05:52:41.111Z,38841.22
2023-03-29T05:55:08.946Z,38815.31
2023-03-29T05:57:40.092Z,38831.25
2023-03-29T06:00:19.663Z,38859.16
2023-03-29T06:02:47.178Z,38875.13
2023-03-29T06:05:14.657Z,38879.09
2023-03-29T06:07:58.027Z,38863.16
2023-03-29T06:10:36.466Z,38901.03
2023-03-29T06:13:19.725Z,38857.16
2023-03-29T06:15:47.274Z,38847.19
2023-03-29T06:18:15.203Z,38869.13
2023-03-29T06:20:46.651Z,38879.09
2023-03-29T06:23:19.813Z,38863.16
2023-03-29T06:25:47.632Z,38871.13
2023-03-29T06:28:15.285Z,38897.03
2023-03-29T06:30:43.683Z,38873.13
2023-03-29T06:33:11.129Z,38958.84
2023-03-29T06:35:50.575Z,38940.91
2023-03-29T06:38:22.684Z,38881.09
2023-03-29T06:41:07.442Z,38857.16
2023-03-29T06:44:04.061Z,38805.34
2023-03-29T06:46:37.468Z,38797.34
2023-03-29T06:49:17.658Z,38777.41
2023-03-29T06:52:01.192Z,38761.47
2023-03-29T06:54:28.732Z,38759.47
2023-03-29T06:57:04.818Z,38767.47
2023-03-29T06:59:35.028Z,38831.25
2023-03-29T07:02:20.008Z,38829.25
2023-03-29T07:05:01.949Z,38905.00
2023-03-29T07:07:55.056Z,38897.03
2023-03-29T07:10:38.142Z,38984.75
2023-03-29T07:13:34.209Z,38996.72
2023-03-29T07:16:04.705Z,39044.56
2023-03-29T07:18:55.088Z,39024.63
2023-03-29T07:21:42.177Z,39034.59
2023-03-29T07:24:10.278Z,38990.75
2023-03-29T07:26:46.321Z,39064.50
2023-03-29T07:29:22.069Z,39210.06
2023-03-29T07:31:49.410Z,39160.22
2023-03-29T07:34:36.995Z,38765.47
2023-03-29T07:37:09.355Z,38562.13
2023-03-29T07:39:38.898Z,38510.28
2023-03-29T07:42:24.780Z,38554.16
2023-03-29T07:44:54.308Z,38542.19
2023-03-29T07:47:22.087Z,38548.16
2023-03-29T07:49:50.568Z,38522.25
2023-03-29T07:52:18.283Z,38568.09
2023-03-29T07:54:45.751Z,38560.13
2023-03-29T07:57:36.186Z,38554.16
2023-03-29T08:00:12.710Z,38568.09
2023-03-29T08:02:45.025Z,38594.00
2023-03-29T08:05:13.866Z,38554.16
2023-03-29T08:07:51.135Z,38570.09
2023-03-29T08:10:29.643Z,38550.16
2023-03-29T08:13:11.782Z,38520.25
2023-03-29T08:16:11.231Z,38522.25
2023-03-29T08:18:44.438Z,38552.16
2023-03-29T08:21:14.831Z,38510.28
2023-03-29T08:23:47.076Z,38584.03
2023-03-29T08:26:21.753Z,38524.25
2023-03-29T08:28:50.184Z,38564.13
2023-03-29T08:31:19.304Z,38522.25
2023-03-29T08:33:46.839Z,38524.25
2023-03-29T08:36:36.830Z,38596.00
2023-03-29T08:39:13.509Z,38584.03
2023-03-29T08:42:10.784Z,38602.00
2023-03-29T08:44:51.557Z,38600.00
2023-03-29T08:47:27.769Z,38615.94
2023-03-29T08:50:00.001Z,38588.03
2023-03-29T08:52:38.891Z,38600.00
2023-03-29T08:55:42.225Z,38602.00
2023-03-29T08:58:29.075Z,38603.97
2023-03-29T09:00:59.778Z,38603.97
2023-03-29T09:03:41.642Z,38588.03
2023-03-29T09:06:16.532Z,38625.91
2023-03-29T09:08:51.820Z,38655.81
2023-03-29T09:11:23.693Z,38615.94
2023-03-29T09:14:26.846Z,38615.94
2023-03-29T09:17:15.471Z,38607.97
2023-03-29T09:20:19.920Z,38645.84
2023-03-29T09:23:11.009Z,38649.84
2023-03-29T09:26:11.231Z,38649.84
2023-03-29T09:29:18.419Z,38617.94
2023-03-29T09:31:46.970Z,38645.84
2023-03-29T09:34:30.810Z,38619.94
2023-03-29T09:37:01.690Z,38633.88
2023-03-29T09:39:29.357Z,38649.84
2023-03-29T09:42:11.909Z,38633.88
2023-03-29T09:44:52.488Z,38576.06
2023-03-29T09:47:29.575Z,38602.00
2023-03-29T09:50:05.014Z,38584.03
2023-03-29T09:52:32.717Z,38607.97
2023-03-29T09:55:17.910Z,38883.09
2023-03-29T09:58:28.004Z,39549.03
2023-03-29T10:01:04.401Z,40009.69
2023-03-29T10:03:34.936Z,40392.63
2023-03-29T10:06:14.625Z,40773.63
2023-03-29T10:08:58.987Z,41382.09
2023-03-29T10:11:39.010Z,41426.00
2023-03-29T10:14:16.724Z,41852.97
2023-03-29T10:16:46.172Z,41996.66
2023-03-29T10:19:38.260Z,42553.47
2023-03-29T10:22:16.374Z,42443.69
2023-03-29T10:24:51.343Z,42751.06
2023-03-29T10:27:34.601Z,42777.00
2023-03-29T10:30:11.905Z,42138.34
2023-03-29T10:32:41.955Z,41717.28
2023-03-29T10:35:20.499Z,41362.13
2023-03-29T10:37:53.339Z,41082.84
2023-03-29T10:40:22.104Z,40917.25
2023-03-29T10:42:51.841Z,40697.81
2023-03-29T10:45:33.451Z,40542.22
2023-03-29T10:48:01.241Z,40348.75
2023-03-29T10:50:34.708Z,40217.13
2023-03-29T10:53:03.240Z,40081.50
2023-03-29T10:55:42.821Z,39698.59
2023-03-29T10:58:16.195Z,39600.88
2023-03-29T11:00:57.021Z,39327.72
2023-03-29T11:04:04.140Z,38897.03
2023-03-29T11:06:49.193Z,38719.59
2023-03-29T11:09:52.725Z,38689.69
2023-03-29T11:12:34.908Z,38705.66
2023-03-29T11:15:11.417Z,38701.66
2023-03-29T11:17:54.517Z,38681.72
2023-03-29T11:20:33.940Z,38627.91
2023-03-29T11:23:14.622Z,38615.94
2023-03-29T11:26:06.271Z,38580.06
2023-03-29T11:29:08.217Z,38584.03
2023-03-29T11:32:15.438Z,38605.97
2023-03-29T11:35:07.100Z,38602.00
2023-03-29T11:38:14.024Z,38568.09
2023-03-29T11:40:53.303Z,38613.94
2023-03-29T11:43:35.997Z,38623.91
2023-03-29T11:46:27.305Z,38603.97
2023-03-29T11:49:10.173Z,38627.91
2023-03-29T11:52:12.895Z,38615.94
2023-03-29T11:54:45.707Z,38598.00
2023-03-29T11:57:23.365Z,38613.94
2023-03-29T12:00:06.977Z,38619.94
2023-03-29T12:02:48.603Z,38600.00
2023-03-29T12:05:21.643Z,38598.00
2023-03-29T12:07:53.680Z,38586.03
2023-03-29T12:10:23.895Z,38560.13
2023-03-29T12:13:02.143Z,38520.25
2023-03-29T12:15:43.263Z,38538.19
2023-03-29T12:18:19.979Z,38552.16
2023-03-29T12:20:52.791Z,38536.19
2023-03-29T12:23:19.977Z,38530.22
2023-03-29T12:25:57.929Z,38528.22
2023-03-29T12:28:40.307Z,38522.25
2023-03-29T12:31:19.442Z,38486.38
2023-03-29T12:34:11.812Z,38470.41
2023-03-29T12:37:03.432Z,38486.38
2023-03-29T12:39:37.585Z,38526.25
2023-03-29T12:42:25.096Z,38540.19
2023-03-29T12:45:19.181Z,38532.22
2023-03-29T12:47:48.889Z,38629.91
2023-03-29T12:50:33.116Z,38639.88
2023-03-29T12:53:19.105Z,38639.88
2023-03-29T12:56:08.564Z,38697.69
2023-03-29T12:58:39.646Z,38717.63
2023-03-29T13:01:11.524Z,38795.38
2023-03-29T13:04:13.859Z,38801.34
2023-03-29T13:07:04.152Z,38916.97
2023-03-29T13:09:32.215Z,38996.72
2023-03-29T13:12:19.192Z,39022.66
2023-03-29T13:14:59.265Z,38970.81
2023-03-29T13:17:54.121Z,39070.50
2023-03-29T13:20:50.546Z,39319.72
2023-03-29T13:23:45.696Z,39351.63
2023-03-29T13:26:28.064Z,39277.84
2023-03-29T13:29:16.672Z,39295.81
2023-03-29T13:31:44.221Z,39204.09
2023-03-29T13:34:53.320Z,39056.53
2023-03-29T13:38:18.642Z,39034.59
2023-03-29T13:41:13.472Z,39044.56
2023-03-29T13:43:47.259Z,38677.75
2023-03-29T13:46:28.794Z,38434.53
2023-03-29T13:49:31.997Z,38755.50
2023-03-29T13:52:42.212Z,39056.53
2023-03-29T13:55:25.487Z,38982.78
2023-03-29T14:01:31.391Z,38665.78
2023-03-29T14:04:07.299Z,38600.00
2023-03-29T14:06:41.811Z,38552.16
2023-03-29T14:09:12.828Z,38504.31
2023-03-29T14:11:45.908Z,38522.25
2023-03-29T14:14:24.698Z,38492.34
2023-03-29T14:17:00.944Z,38444.50
2023-03-29T14:19:36.439Z,38478.41
2023-03-29T14:22:16.978Z,38478.41
2023-03-29T14:25:12.363Z,38434.53
2023-03-29T14:27:41.272Z,38532.22
2023-03-29T14:30:26.121Z,38520.25
2023-03-29T14:32:53.506Z,38512.28
2023-03-29T14:35:32.450Z,38494.34
2023-03-29T14:38:05.360Z,38885.09
2023-03-29T14:44:00.774Z,38942.91
2023-03-29T14:46:28.579Z,38916.97
2023-03-29T14:48:56.916Z,38853.19
2023-03-29T14:51:30.343Z,38817.28
2023-03-29T14:53:59.947Z,38723.59
2023-03-29T14:56:28.687Z,38701.66
2023-03-29T14:58:57.428Z,38697.69
2023-03-29T15:01:26.818Z,38697.69
2023-03-29T15:03:57.494Z,38705.66
2023-03-29T15:06:26.448Z,38709.63
2023-03-29T15:09:05.383Z,38697.69
2023-03-29T15:11:34.614Z,38695.69
2023-03-29T15:14:11.377Z,38667.78
2023-03-29T15:16:47.846Z,38669.78
2023-03-29T15:19:22.384Z,38673.75
2023-03-29T15:21:53.287Z,38677.75
2023-03-29T15:24:32.236Z,38665.78
2023-03-29T15:27:14.982Z,38661.78
2023-03-29T15:30:01.185Z,38651.81
2023-03-29T15:32:37.328Z,38705.66
2023-03-29T15:35:09.446Z,38869.13
2023-03-29T15:37:40.332Z,39048.56
2023-03-29T15:40:16.739Z,39082.47
2023-03-29T15:42:44.212Z,39136.28
2023-03-29T15:45:16.833Z,39094.41
2023-03-29T15:47:44.883Z,39052.56
2023-03-29T15:50:33.813Z,38964.81
2023-03-29T15:53:14.145Z,39112.38
2023-03-29T15:55:46.154Z,39064.50
2023-03-29T15:58:16.007Z,39068.50
2023-03-29T16:00:48.495Z,38998.72
2023-03-29T16:03:16.285Z,39038.59
2023-03-29T16:05:46.596Z,38940.91
2023-03-29T16:08:16.150Z,38956.84
2023-03-29T16:10:47.211Z,38992.75
2023-03-29T16:13:15.264Z,39030.63
2023-03-29T16:15:43.061Z,39032.63
2023-03-29T16:18:10.640Z,38956.84
2023-03-29T16:20:40.455Z,38968.81
2023-03-29T16:23:09.969Z,38948.88
2023-03-29T16:25:39.898Z,38940.91
2023-03-29T16:28:09.029Z,38825.28
2023-03-29T16:30:37.629Z,38811.31
2023-03-29T16:33:08.356Z,38807.31
2023-03-29T16:35:39.964Z,38815.31
2023-03-29T16:38:08.012Z,38811.31
2023-03-29T16:40:37.513Z,38869.13
2023-03-29T16:43:04.697Z,38984.75
2023-03-29T16:45:31.930Z,39064.50
2023-03-29T16:47:59.211Z,39168.19
2023-03-29T16:50:26.599Z,39267.88
2023-03-29T16:52:54.104Z,39196.09
2023-03-29T16:55:21.319Z,39180.16
2023-03-29T16:57:50.918Z,39140.28
2023-03-29T17:00:19.956Z,39202.09
2023-03-29T17:02:50.573Z,39200.09
2023-03-29T17:05:18.808Z,39216.03
2023-03-29T17:07:46.791Z,39281.84
2023-03-29T17:10:14.567Z,39289.81
2023-03-29T17:12:44.265Z,39495.19
2023-03-29T17:15:11.473Z,39724.53
2023-03-29T17:17:41.270Z,39674.66
2023-03-29T17:20:12.236Z,39684.63
2023-03-29T17:22:39.901Z,39636.78
2023-03-29T17:25:08.110Z,39754.44
2023-03-29T17:27:37.652Z,39806.28
2023-03-29T17:30:06.717Z,39794.31
2023-03-29T17:32:34.399Z,39913.97
2023-03-29T17:35:01.734Z,39830.22
2023-03-29T17:37:36.663Z,40276.97
2023-03-29T17:40:14.333Z,41747.22
2023-03-29T17:42:46.687Z,42575.41
2023-03-29T17:45:15.603Z,44482.00
2023-03-29T17:47:48.130Z,44507.97
2023-03-29T17:50:18.745Z,45864.22
2023-03-29T17:52:46.787Z,45786.31
2023-03-29T17:55:14.537Z,44971.31
2023-03-29T17:57:50.410Z,44597.84
2023-03-29T18:00:21.602Z,43964.81
2023-03-29T18:02:49.315Z,43377.84
2023-03-29T18:05:18.286Z,42978.59
2023-03-29T18:07:45.843Z,42681.19
2023-03-29T18:10:17.293Z,42379.81
2023-03-29T18:20:55.051Z,42270.06
2023-03-29T18:23:35.799Z,41886.91
2023-03-29T18:26:07.529Z,41743.25
2023-03-29T18:28:38.402Z,42164.28
2023-03-29T18:31:05.954Z,43032.50
2023-03-29T18:33:36.107Z,43561.50
2023-03-29T18:36:08.399Z,43992.78
2023-03-29T18:38:40.470Z,44048.69
2023-03-29T18:41:08.734Z,43916.91
2023-03-29T18:44:06.903Z,44040.69
2023-03-29T18:46:40.919Z,44603.81
2023-03-29T18:49:08.669Z,44424.09
2023-03-29T18:51:36.064Z,44374.16
2023-03-29T18:54:06.090Z,44352.22
2023-03-29T18:56:33.459Z,45095.16
2023-03-29T18:59:05.022Z,45570.53
2023-03-29T19:01:32.926Z,45890.19
2023-03-29T19:04:00.843Z,46177.88
2023-03-29T19:06:28.163Z,46489.59
2023-03-29T19:08:58.129Z,46793.31
2023-03-29T19:11:27.720Z,46745.38
2023-03-29T19:13:56.276Z,46683.41
2023-03-29T19:16:23.657Z,46081.97
2023-03-29T19:18:51.194Z,46070.00
2023-03-29T19:21:23.358Z,46004.06
2023-03-29T19:23:53.390Z,46445.63
2023-03-29T19:26:21.697Z,46497.59
2023-03-29T19:28:49.041Z,46365.72
2023-03-29T19:31:18.513Z,46707.41
2023-03-29T19:33:48.292Z,47187.03
2023-03-29T19:36:15.883Z,47177.03
2023-03-29T19:38:43.827Z,47588.78
2023-03-29T19:41:11.572Z,47045.13
2023-03-29T19:43:38.789Z,47434.88
2023-03-29T19:46:10.208Z,47133.06
2023-03-29T19:48:40.208Z,46993.16
2023-03-29T19:51:08.016Z,46905.25
2023-03-29T19:53:38.530Z,46585.50
2023-03-29T19:56:07.856Z,46907.25
2023-03-29T19:58:37.731Z,46635.47
2023-03-29T20:01:05.332Z,46377.69
2023-03-29T20:03:34.161Z,46397.69
2023-03-29T20:06:02.484Z,46293.78
2023-03-29T20:08:29.909Z,45884.19
2023-03-29T20:10:58.963Z,45622.50
2023-03-29T20:13:38.162Z,45478.66
2023-03-29T20:16:15.206Z,45538.59
2023-03-29T20:18:45.392Z,45972.09
2023-03-29T20:21:18.826Z,45850.22
2023-03-29T20:23:46.209Z,46197.88
2023-03-29T20:26:15.707Z,46271.78
2023-03-29T20:28:42.921Z,46551.53
2023-03-29T20:31:13.113Z,46683.41
2023-03-29T20:33:41.378Z,47356.91
2023-03-29T20:36:09.100Z,48004.56
2023-03-29T20:38:36.767Z,48178.47
2023-03-29T20:41:05.511Z,47696.72
2023-03-29T20:43:37.546Z,47500.81
2023-03-29T20:46:18.269Z,47348.91
2023-03-29T20:48:53.357Z,47806.66
2023-03-29T20:51:21.967Z,47624.75
2023-03-29T20:53:51.547Z,47300.94
2023-03-29T20:56:19.005Z,47432.88
2023-03-29T20:58:46.878Z,47462.84
2023-03-29T21:01:21.713Z,47738.69
2023-03-29T21:03:49.188Z,47844.63
2023-03-29T21:06:16.481Z,47326.94
2023-03-29T21:08:43.692Z,47260.97
2023-03-29T21:11:13.005Z,47376.91
2023-03-29T21:13:43.466Z,47247.00
2023-03-29T21:16:13.447Z,47348.91
2023-03-29T21:18:40.752Z,47912.59
2023-03-29T21:21:09.421Z,47836.63
2023-03-29T21:23:40.469Z,47528.81
2023-03-29T21:26:07.763Z,47498.81
2023-03-29T21:28:35.759Z,47672.72
2023-03-29T21:31:07.147Z,47266.97
2023-03-29T21:33:37.919Z,47854.63
2023-03-29T21:36:05.586Z,48032.53
2023-03-29T21:38:32.860Z,47684.72
2023-03-29T21:41:03.163Z,47680.72
2023-03-29T21:43:30.774Z,47860.63
2023-03-29T21:45:58.074Z,47886.63
2023-03-29T21:48:25.329Z,47908.59
2023-03-29T21:50:52.883Z,47512.81
2023-03-29T21:53:20.105Z,47580.78
2023-03-29T21:55:51.503Z,47574.78
2023-03-29T21:58:19.372Z,47426.88
2023-03-29T22:00:47.653Z,47354.91
2023-03-29T22:03:16.432Z,47636.75
2023-03-29T22:05:55.031Z,47444.88
2023-03-29T22:08:26.286Z,47099.09
2023-03-29T22:10:57.976Z,47093.09
2023-03-29T22:13:30.904Z,46873.25
2023-03-29T22:16:03.751Z,47247.00
2023-03-29T22:18:42.681Z,47574.78
2023-03-29T22:21:23.336Z,49400.22
2023-03-29T22:23:52.801Z,48568.34
2023-03-29T22:26:24.974Z,47844.63
2023-03-29T22:28:52.195Z,47444.88
2023-03-29T22:31:21.340Z,47131.06
2023-03-29T22:33:51.834Z,47231.00
2023-03-29T22:36:28.200Z,47047.13
2023-03-29T22:38:56.325Z,46773.34
2023-03-29T22:41:26.069Z,46615.47
2023-03-29T22:43:54.921Z,46581.50
2023-03-29T22:46:25.439Z,46801.31
2023-03-29T22:48:55.259Z,46817.31
2023-03-29T22:51:22.841Z,46779.34
2023-03-29T22:53:50.096Z,46327.75
2023-03-29T22:56:17.612Z,46261.81
2023-03-29T22:58:45.785Z,46397.69
2023-03-29T23:01:13.478Z,46601.50
2023-03-29T23:03:40.754Z,46465.63
2023-03-29T23:06:08.064Z,46745.38
2023-03-29T23:08:36.155Z,46673.44
2023-03-29T23:11:07.142Z,46581.50
2023-03-29T23:13:35.108Z,46425.66
2023-03-29T23:16:03.667Z,46383.69
2023-03-29T23:18:32.446Z,46901.25
2023-03-29T23:21:02.521Z,47183.03
2023-03-29T23:23:29.883Z,46557.53
2023-03-29T23:25:57.134Z,46549.53
2023-03-29T23:28:27.347Z,46465.63
2023-03-29T23:31:00.239Z,46445.63
2023-03-29T23:33:36.096Z,46743.38
2023-03-29T23:36:06.254Z,46597.50
2023-03-29T23:38:35.629Z,46759.34
2023-03-29T23:41:04.465Z,46949.22
2023-03-29T23:43:34.276Z,47774.66
2023-03-29T23:46:05.769Z,47780.66
2023-03-29T23:48:36.180Z,47173.03
2023-03-29T23:51:04.795Z,46689.41
2023-03-29T23:53:34.542Z,46269.78
2023-03-29T23:56:03.629Z,46171.91
2023-03-29T23:58:33.416Z,45444.69
